Kendall, WI

5:31 AM CST on December 04, 2016 (GMT -0600)
| | Change Station
Active Advisory: Winter Weather Advisory

Elev -9999 ft 0.00 °N, 0.00 °E | Updated

Snow
Snow
30 °F
Feels Like 23 °F
N
8
Wind Variable Wind from SE
Gusts mph

Today
High -- | Low -- °F
--% Chance of Precip.
Yesterday
High -- | Low -- °F
Precip. -- in
Pressure 30.10 in
Visibility 2.5 miles
Clouds Overcast 1100 ft
Windchill 23 °F
Dew Point 29 °F
Humidity 94%
Rainfall --
Snow Depth Not available.
7:19 AM 4:24 PM
Waxing Crescent, 22% visible
SPECI KVOK 041123Z AUTO 14005KT 2 1/2SM R27/3500FT -SN BR OVC011 M01/M02 A3010 RMK AO2 VIS 2V2 1/2 UPE1058SNB1058
Pressure 30.10 in
Visibility 2.5 miles
Clouds Overcast 1100 ft
Windchill 23 °F
Dew Point 29 °F
Humidity 94%
Rainfall --
Snow Depth Not available.
7:19 AM 4:24 PM
Waxing Crescent, 22% visible
SPECI KVOK 041123Z AUTO 14005KT 2 1/2SM R27/3500FT -SN BR OVC011 M01/M02 A3010 RMK AO2 VIS 2V2 1/2 UPE1058SNB1058

10-Day Weather Forecast

Almanac

Astronomy

Dec. 04, 2016 Rise Set
Actual Time
Civil Twilight
Nautical Twilight
Astronomical Twilight
Moon
Length of Visible Light
Length of Day
Tomorrow will be .
, % of the Moon is Illuminated

Today's Extremes

State Highs State Lows

Community

WunderPhotos

Upload Photos

1,955,593 photos uploaded!

WunderBlog® & News

Nearby

Air Quality

  Air Quality AQ Index Pollutant
Not available.

Snow Depth

Station Depth Elevation

Earthquake Activity

City Distance Mag. Time & Date
Minimum magnitude displayed is 2.5.

Coastal Water Temperatures

Place Temperature

Stations

Nearby Weather Stations

Station Location Temp. Windchill Dew Point Humidity Wind Precip. Elev Updated Type
                   

Watches & Warnings

Winter Weather Advisory
Issued: 3:15 AM CST Dec. 4, 2016 – National Weather Service

... Winter Weather Advisory remains in effect until 3 PM CST this
afternoon...

* periods of snow continue today... heaviest this morning into
early afternoon.

* Total snow accumulation of 2 to 5 inches is expected.

* Look for reduced visibilities at times.

* Plan on slippery Road conditions.

Precautionary/preparedness actions...

A Winter Weather Advisory means that periods of snow will cause
travel difficulties. Be prepared for slippery roads and limited
visibilities... and use caution while driving. The latest Road
conditions for the state you are calling from can be obtained by
calling 5 1 1.